Here is the Quick Look data you requested

The Data originates at the National Weather Service, and is made available here by the UAlbany Department of Atmospheric and Environmental Sciences

Surface Observations

KAKQ 230954Z AUTO 00000KT 8SM CLR 09/07 A3008 RMK AO2 SLP187 T00890072=
KAVC 230955Z AUTO 00000KT 10SM CLR 07/07 A3015 RMK AO2 T00730073=
KBCB 230950Z AUTO 00000KT 10SM CLR 07/07 A3015 RMK AO2 T00730066=
KCHO 230953Z 25003KT 10SM CLR 12/06 A3007 RMK AO2 SLP179 T01170061=
KCJR 230955Z AUTO 00000KT 10SM CLR 07/06 A3009 RMK AO2 T00710064=
KCPK 230955Z AUTO 00000KT 10SM CLR 09/08 A3008 RMK AO2 T00890081=
KDAA 230956Z AUTO 00000KT 10SM CLR 08/07 A3006 RMK AO2 SLP182 T00810072=
KDAN 230953Z AUTO 21003KT 10SM CLR 07/07 A3010 RMK AO2 SLP186 T00720067=
KDCA 230952Z 21004KT 10SM FEW160 12/08 A3006 RMK AO2 SLP178 T01220083=
KEZF 230955Z AUTO 00000KT 10SM CLR 09/09 A3007 RMK AO2 T00880088=
KFAF 230956Z 00000KT 10SM CLR 12/10 A3005 RMK AO2A SLP179 T01170101 $=
KFKN 230955Z AUTO 00000KT 10SM CLR 08/07 A3009 RMK AO2 T00770074=
KFVX 230955Z AUTO 00000KT 10SM CLR 07/07 A3008 RMK AO2 T00700070=
KHEF 230956Z AUTO 00000KT 10SM CLR 08/07 A3007 RMK AO2 SLP194 T00780072 PNO $=
KHLX 230955Z AUTO 23003KT 10SM CLR 11/07 A3014 RMK AO2 T01140070=
KHSP 230955Z AUTO 27006KT 10SM CLR 12/07 A3015 RMK AO2 T01200065=
KIAD 230952Z 21003KT 10SM FEW150 09/07 A3007 RMK AO2 SLP180 T00890067=
KJYO 230955Z AUTO 26005KT 10SM CLR 10/08 A3008 RMK AO2=
KLFI 230956Z AUTO 23007KT 10SM CLR 12/11 A3007 RMK AO2 SLP189 T01190106 $=
KLKU 230955Z AUTO 23003KT 10SM CLR 07/06 A3012 RMK AO2 T00690062=
KLNP 230955Z AUTO 22007KT 10SM CLR 12/07 A3015 RMK AO2=
KLYH 230954Z AUTO 00000KT 10SM CLR 08/07 A3009 RMK AO2 SLP187 T00780067=
KMFV 230955Z AUTO 25003KT 10SM CLR 11/11 A3006 RMK AO2 T01120108=
KMKJ 230955Z AUTO 26006KT 10SM CLR 10/08 A3016 RMK AO2 T01020080=
KMTV 230950Z AUTO 00000KT 10SM CLR 06/06 A3013 RMK AO2 T00550055=
KNGU 230959Z 23004KT 10SM CLR 13/09 A3009 RMK AO2 SLP187 T01280094
KNTU 230956Z 23003KT 10SM CLR 12/09 A3007 RMK AO2 SLP183 T01170089=
KNYG 230956Z AUTO 29007KT 10SM CLR 11/09 A3008 RMK AO2 SLP185 T01110094
KOFP 230954Z AUTO 00000KT 10SM CLR 09/08 A3009 RMK AO2 SLP188 T00940078=
KOKV 230955Z AUTO 22003KT 10SM CLR 10/05 A3009 RMK AO2=
KOMH 231000Z AUTO 00000KT 10SM CLR 07/06 A3008 RMK AO2=
KORF 230951Z 23006KT 10SM CLR 13/09 A3007 RMK AO2 SLP181 T01280089=
KPHF 230954Z 00000KT 10SM CLR 11/09 A3007 RMK AO2 SLP182 T01060089=
KPSK 230955Z AUTO 00000KT 10SM CLR 08/07 A3014 RMK AO2 T00820067=
KPTB 230955Z AUTO 00000KT 10SM CLR 07/06 A3009 RMK AO2 T00670055=
KRIC 230954Z 00000KT 10SM CLR 11/08 A3007 RMK AO2 SLP188 T01060078=
KROA 230954Z 00000KT 10SM CLR 11/06 A3012 RMK AO2 SLP194 T01110061=
KSFQ 230955Z AUTO 00000KT 10SM CLR 10/09 A3009 RMK AO2 T00990087=
KSHD 230955Z AUTO 00000KT 7SM CLR 05/05 A3012 RMK AO2 T00520050=
KVJI 230955Z AUTO 11003KT 10SM CLR 09/07 A3014 RMK AO2 T00870071=
KWAL 230954Z AUTO 26004KT 10SM CLR 12/11 A3005 RMK AO2 SLP171 T01170106=